Grandview, TX (76050)

5:54 AM CDT on June 24, 2017 (GMT -0500)
Downtown Grandview @ FireFly Stage | | Change Station

Elev 701 ft 32.27 °N, 97.18 °W | Updated 10 seconds ago

Rain
Rain
69.3 °F
Feels Like 69.3 °F
N
0.7
Wind Variable Wind from SE
Gusts 2.5 mph

Today
High -- | Low -- °F
--% Chance of Precip.
Yesterday
High -- | Low -- °F
Precip. -- in
Pressure 30.01 in
Visibility 7.0 miles
Clouds Mostly Cloudy 11000 ft
Dew Point 69 °F
Humidity 99%
Rainfall 1.22 in
Snow Depth Not available.
6:23 AM 8:39 PM
New Moon, 0% visible
METAR KINJ 241035Z AUTO 11007G15KT 7SM TSRA BKN110 21/21 A3001 RMK AO2 LTG DSNT ALQS P0007 T02130207
Pressure 30.01 in
Visibility 7.0 miles
Clouds Mostly Cloudy 11000 ft
Dew Point 69 °F
Humidity 99%
Rainfall 1.22 in
Snow Depth Not available.
6:23 AM 8:39 PM
New Moon, 0% visible
METAR KINJ 241035Z AUTO 11007G15KT 7SM TSRA BKN110 21/21 A3001 RMK AO2 LTG DSNT ALQS P0007 T02130207

Get Severe Weather Alerts

Thanks for signing up!

Be on the lookout for a verification email in your inbox.

You'll start receiving the daily forecast at 6 AM.

×

10-Day Weather Forecast

Almanac

Astronomy

Jun. 24, 2017 Rise Set
Actual Time
Civil Twilight
Nautical Twilight
Astronomical Twilight
Moon
Length of Visible Light
Length of Day
Tomorrow will be .
, % of the Moon is Illuminated

Today's Extremes

State Highs State Lows

Community

WunderPhotos

Category 6

Welcome to Category 6. This is the collective home for Weather Underground's featured writeups by Dr. Jeff Masters (right), Bob Henson (left), Chris Burt, and other regular contributors.

Nearby

Air Quality

  Air Quality AQ Index Pollutant
Not available.

Snow Depth

Station Depth Elevation

Earthquake Activity

City Distance Mag. Time & Date
Minimum magnitude displayed is 2.5.

Coastal Water Temperatures

Place Temperature

Stations

Nearby Weather Stations

Station Location Temp. Windchill Dew Point Humidity Wind Precip. Elev Updated Type
                   

Watches & Warnings

There are currently no watches in effect.